Time;durP1;ratioP1;P1;durP2;ratioP2;P2;SDS_P1;SDS_P2;PMS_P1;PMS_P2;Temp;Humidity;BMP_temperature;BMP_pressure;BME280_temperature;BME280_humidity;BME280_pressure;Samples;Min_cycle;Max_cycle;Signal;HPM_P1;HPM_P2
2022/05/28 00:02:13;;;;;;;;;2.50;2.25;;;;;18.77;58.63;99452.00;5011403;28;45585;-62
2022/05/28 00:04:38;;;;;;;;;2.00;2.00;;;;;18.69;59.29;99452.56;5026434;28;45561;-63
2022/05/28 00:07:04;;;;;;;;;2.00;2.00;;;;;18.66;59.41;99460.78;5018841;28;45782;-62
2022/05/28 00:09:30;;;;;;;;;4.00;2.00;;;;;18.57;59.88;99465.88;5023871;28;45426;-62
2022/05/28 00:11:55;;;;;;;;;5.75;4.75;;;;;18.51;60.52;99432.41;5028408;28;45542;-62
2022/05/28 00:14:20;;;;;;;;;3.75;3.75;;;;;18.45;60.51;99447.00;5028336;28;45627;-62
2022/05/28 00:16:46;;;;;;;;;5.50;3.75;;;;;18.40;60.92;99458.97;5029703;28;46223;-62
2022/05/28 00:19:11;;;;;;;;;3.00;3.00;;;;;18.33;60.45;99458.53;5029251;28;45442;-62
2022/05/28 00:21:37;;;;;;;;;4.00;3.00;;;;;18.25;62.11;99460.00;5019984;28;45317;-62
2022/05/28 00:24:03;;;;;;;;;3.25;3.00;;;;;18.14;62.10;99428.66;5028044;28;45569;-62
2022/05/28 00:26:28;;;;;;;;;3.50;3.00;;;;;18.08;61.83;99437.94;5016501;28;46091;-62
2022/05/28 00:28:54;;;;;;;;;4.00;4.00;;;;;17.98;62.01;99433.31;5017713;28;45427;-62
2022/05/28 00:31:20;;;;;;;;;2.75;2.75;;;;;17.89;63.04;99426.78;5016940;28;45418;-62
2022/05/28 00:33:45;;;;;;;;;3.00;3.00;;;;;17.83;62.53;99437.81;5020911;28;45455;-62
2022/05/28 00:36:12;;;;;;;;;5.00;3.00;;;;;17.77;63.06;99424.88;5019589;28;45859;-62
2022/05/28 00:38:42;;;;;;;;;3.40;3.40;;;;;17.74;63.43;99433.09;5032011;28;45373;-62
2022/05/28 00:41:08;;;;;;;;;3.20;2.20;;;;;17.70;62.98;99442.25;5027279;28;45453;-62
2022/05/28 00:43:34;;;;;;;;;2.50;2.50;;;;;17.66;63.70;99436.25;5035270;28;45465;-62
2022/05/28 00:46:09;;;;;;;;;3.40;3.00;;;;;17.58;63.33;99411.00;5032749;28;46610;-62
2022/05/28 00:48:40;;;;;;;;;3.60;3.60;;;;;17.52;64.02;99428.25;5028731;28;45423;-62
2022/05/28 00:51:08;;;;;;;;;5.00;5.00;;;;;17.48;63.92;99410.72;5036235;28;45508;-62
2022/05/28 00:53:34;;;;;;;;;5.25;5.25;;;;;17.45;64.27;99433.09;5028201;28;45543;-62
2022/05/28 00:56:02;;;;;;;;;3.00;3.00;;;;;17.42;64.48;99419.13;5028739;28;46351;-62
2022/05/28 00:58:28;;;;;;;;;7.20;5.20;;;;;17.35;65.53;99421.31;5027347;28;45401;-62
2022/05/28 01:00:53;;;;;;;;;6.00;5.50;;;;;17.34;64.47;99424.06;5035903;28;45320;-62
2022/05/28 01:03:26;;;;;;;;;2.50;2.25;;;;;17.31;65.16;99416.25;5027165;28;45419;-62
2022/05/28 01:06:38;;;;;;;;;5.50;5.00;;;;;17.27;65.32;99433.38;5035449;28;45472;-62
2022/05/28 01:09:13;;;;;;;;;3.20;3.20;;;;;17.23;65.42;99421.22;5002807;28;45610;-62
2022/05/28 01:11:47;;;;;;;;;4.00;4.00;;;;;17.22;65.48;99400.88;5035460;28;45482;-62
2022/05/28 01:14:24;;;;;;;;;5.00;4.00;;;;;17.22;64.95;99400.88;5035486;28;45458;-62
2022/05/28 01:16:52;;;;;;;;;2.50;2.50;;;;;17.23;65.38;99395.44;5035507;28;46320;-63
2022/05/28 01:19:39;;;;;;;;;4.00;3.00;;;;;17.24;65.01;99399.81;5029150;28;45229;-62
2022/05/28 01:22:12;;;;;;;;;3.00;3.00;;;;;17.23;65.47;99389.25;5030200;28;45567;-62
2022/05/28 01:24:53;;;;;;;;;4.25;4.00;;;;;17.20;64.74;99392.09;5028392;28;45364;-62
2022/05/28 01:27:32;;;;;;;;;3.00;3.00;;;;;17.14;64.78;99381.81;5035408;28;45524;-62
2022/05/28 01:30:03;;;;;;;;;5.00;5.00;;;;;17.10;65.33;99384.69;5026773;28;45322;-62
2022/05/28 01:32:30;;;;;;;;;4.00;4.00;;;;;17.07;65.47;99381.38;5027694;28;45470;-62
2022/05/28 01:34:59;;;;;;;;;3.00;3.00;;;;;17.02;66.28;99380.78;5031259;28;45574;-62
2022/05/28 01:37:24;;;;;;;;;4.00;4.00;;;;;16.97;65.18;99375.75;5031981;28;46383;-62
2022/05/28 01:39:53;;;;;;;;;4.25;3.00;;;;;16.91;65.24;99384.13;5035259;28;45512;-62
2022/05/28 01:42:19;;;;;;;;;2.50;2.50;;;;;16.88;66.15;99384.31;5034084;28;45569;-62
2022/05/28 01:44:47;;;;;;;;;3.75;3.75;;;;;16.84;65.94;99371.28;5032935;28;45513;-62
2022/05/28 01:47:15;;;;;;;;;3.00;3.00;;;;;16.79;66.04;99352.91;5033401;28;46022;-63
2022/05/28 01:49:43;;;;;;;;;4.80;4.00;;;;;16.76;66.57;99361.09;5033247;28;45516;-62
2022/05/28 01:52:12;;;;;;;;;4.00;3.00;;;;;16.73;67.55;99362.16;5028206;28;45398;-62
2022/05/28 01:54:43;;;;;;;;;4.00;4.00;;;;;16.69;67.53;99368.59;5031269;28;45509;-62
2022/05/28 01:57:09;;;;;;;;;4.75;3.25;;;;;16.65;67.89;99355.56;5009378;28;47447;-62
2022/05/28 01:59:35;;;;;;;;;4.00;4.00;;;;;16.61;66.80;99354.00;5028149;28;46002;-62
2022/05/28 02:02:06;;;;;;;;;2.25;2.25;;;;;16.60;66.86;99346.97;5029543;28;45327;-62
2022/05/28 02:04:34;;;;;;;;;5.50;5.00;;;;;16.56;67.39;99335.69;5032451;28;45510;-62
2022/05/28 02:07:02;;;;;;;;;3.25;3.25;;;;;16.54;67.89;99347.38;5000071;28;48496;-63
2022/05/28 02:09:54;;;;;;;;;4.40;4.00;;;;;16.51;68.51;99329.78;5032006;28;45356;-62
2022/05/28 02:12:37;;;;;;;;;5.00;3.25;;;;;16.49;68.23;99342.31;5028752;28;45496;-62
2022/05/28 02:15:39;;;;;;;;;4.00;4.00;;;;;16.47;67.92;99333.56;5026148;28;45535;-62
2022/05/28 02:18:29;;;;;;;;;3.00;3.00;;;;;16.46;68.09;99325.66;5030880;28;45555;-62
2022/05/28 02:20:57;;;;;;;;;4.00;4.00;;;;;16.44;68.98;99339.06;5026010;28;45454;-62
2022/05/28 02:23:28;;;;;;;;;3.00;2.00;;;;;16.44;68.28;99340.88;5031167;28;45446;-62
2022/05/28 02:26:09;;;;;;;;;4.00;3.00;;;;;16.42;67.52;99324.16;5016190;28;45379;-62
2022/05/28 02:28:35;;;;;;;;;5.50;5.50;;;;;16.40;69.11;99335.75;5030567;28;46456;-62
2022/05/28 02:31:13;;;;;;;;;3.40;3.00;;;;;16.39;67.54;99314.56;5022548;28;45406;-62
2022/05/28 02:33:39;;;;;;;;;4.00;4.00;;;;;16.37;67.63;99309.31;5027149;28;45453;-62
2022/05/28 02:36:04;;;;;;;;;7.00;7.00;;;;;16.38;68.68;99304.84;5034438;28;45410;-63
2022/05/28 02:38:30;;;;;;;;;3.75;3.75;;;;;16.39;67.55;99301.25;5033632;28;45553;-62
2022/05/28 02:40:56;;;;;;;;;5.25;4.25;;;;;16.42;68.35;99303.72;5005952;28;45724;-62
2022/05/28 02:43:25;;;;;;;;;5.00;5.00;;;;;16.45;68.35;99300.00;5007767;28;45371;-62
2022/05/28 02:45:50;;;;;;;;;4.75;4.00;;;;;16.47;67.78;99298.09;5014320;28;45558;-62
2022/05/28 02:48:16;;;;;;;;;4.75;4.75;;;;;16.48;68.56;99308.66;5009967;28;45621;-62
2022/05/28 02:50:41;;;;;;;;;4.25;4.25;;;;;16.54;68.54;99294.13;5011754;28;45409;-62
2022/05/28 02:53:07;;;;;;;;;5.50;5.50;;;;;16.56;68.42;99318.84;4997916;28;45431;-62
2022/05/28 02:55:33;;;;;;;;;6.25;4.00;;;;;16.60;67.98;99299.91;5013249;28;45491;-62
2022/05/28 02:57:58;;;;;;;;;4.50;4.50;;;;;16.62;67.54;99291.84;5007647;28;46226;-62
2022/05/28 03:00:24;;;;;;;;;5.50;4.00;;;;;16.62;67.78;99302.47;5009527;28;45391;-62
2022/05/28 03:02:50;;;;;;;;;4.75;4.75;;;;;16.61;68.31;99292.78;4993438;28;45390;-62
2022/05/28 03:05:19;;;;;;;;;4.00;4.00;;;;;16.60;67.63;99299.91;4993328;28;45503;-62
2022/05/28 03:07:44;;;;;;;;;4.25;4.00;;;;;16.59;67.60;99297.38;5009242;28;45518;-62
2022/05/28 03:10:14;;;;;;;;;5.50;5.00;;;;;16.60;67.55;99294.59;5006307;28;45391;-62
2022/05/28 03:12:39;;;;;;;;;5.50;5.00;;;;;16.57;67.70;99297.47;5013929;28;45417;-62
2022/05/28 03:15:06;;;;;;;;;4.00;4.00;;;;;16.54;67.77;99304.78;5011063;28;45496;-62
2022/05/28 03:17:31;;;;;;;;;4.50;4.50;;;;;16.50;67.93;99277.50;5013298;28;46509;-62
2022/05/28 03:19:59;;;;;;;;;6.00;6.00;;;;;16.47;68.41;99287.47;5008937;28;45312;-62
2022/05/28 03:22:24;;;;;;;;;7.00;6.00;;;;;16.44;68.47;99282.31;5013078;28;45184;-62
2022/05/28 03:24:50;;;;;;;;;4.50;4.50;;;;;16.40;68.33;99293.19;5003062;28;45408;-62
2022/05/28 03:27:15;;;;;;;;;3.50;2.50;;;;;16.36;68.04;99286.31;5012464;28;47367;-62
2022/05/28 03:29:40;;;;;;;;;4.25;4.25;;;;;16.36;68.25;99275.69;5005585;28;45402;-62
2022/05/28 03:32:06;;;;;;;;;5.50;5.25;;;;;16.40;68.43;99284.34;5007624;28;45643;-60
2022/05/28 03:34:31;;;;;;;;;6.25;5.75;;;;;16.50;67.73;99284.63;5007188;28;45374;-59
2022/05/28 03:36:57;;;;;;;;;7.25;6.00;;;;;16.61;67.87;99271.47;5012138;28;46536;-59
2022/05/28 03:39:22;;;;;;;;;5.75;5.75;;;;;16.69;67.63;99275.44;5012280;28;45317;-60
2022/05/28 03:41:48;;;;;;;;;4.75;4.00;;;;;16.74;66.95;99283.13;4995837;28;45425;-59
2022/05/28 03:44:13;;;;;;;;;7.75;6.00;;;;;16.72;67.23;99285.88;5010682;28;45424;-60
2022/05/28 03:46:39;;;;;;;;;8.00;6.00;;;;;16.71;66.48;99288.66;5008253;28;45640;-59
2022/05/28 03:49:21;;;;;;;;;5.80;5.20;;;;;16.70;67.19;99281.59;5017084;28;45468;-60
2022/05/28 03:51:47;;;;;;;;;5.75;5.75;;;;;16.71;67.39;99283.31;5013555;28;45417;-60
2022/05/28 03:54:13;;;;;;;;;6.75;6.00;;;;;16.72;66.93;99280.56;5015179;28;45662;-59
2022/05/28 03:56:41;;;;;;;;;8.75;8.25;;;;;16.71;67.25;99278.00;5016481;28;45467;-59
2022/05/28 03:59:08;;;;;;;;;6.80;6.80;;;;;16.69;66.83;99277.25;5012732;28;45403;-59
2022/05/28 04:01:34;;;;;;;;;6.00;6.00;;;;;16.70;67.00;99278.94;5008763;28;45513;-59
2022/05/28 04:04:00;;;;;;;;;7.25;6.75;;;;;16.73;67.10;99271.63;5011955;28;45563;-59
2022/05/28 04:06:25;;;;;;;;;6.50;6.50;;;;;16.72;67.01;99277.91;5011548;28;45615;-60
2022/05/28 04:08:51;;;;;;;;;6.75;6.75;;;;;16.65;67.09;99287.22;4993479;28;45299;-60
2022/05/28 04:11:17;;;;;;;;;8.25;6.25;;;;;16.59;67.25;99292.03;5009502;28;45619;-59
2022/05/28 04:13:43;;;;;;;;;7.75;7.00;;;;;16.54;67.48;99307.44;4995608;28;45600;-59
2022/05/28 04:16:09;;;;;;;;;4.75;4.75;;;;;16.51;66.93;99294.31;5009291;28;46084;-60
2022/05/28 04:18:35;;;;;;;;;4.00;4.00;;;;;16.50;67.28;99290.78;4997757;28;45379;-58
2022/05/28 04:21:01;;;;;;;;;4.00;4.00;;;;;16.53;67.61;99309.25;4997340;28;45331;-58
2022/05/28 04:23:26;;;;;;;;;7.75;7.00;;;;;16.54;67.61;99291.47;4999225;28;45423;-58
2022/05/28 04:25:51;;;;;;;;;7.00;7.00;;;;;16.56;67.10;99305.53;5004106;28;46195;-57
2022/05/28 04:28:17;;;;;;;;;8.50;8.50;;;;;16.53;67.19;99293.28;5007572;28;45380;-57
2022/05/28 04:30:42;;;;;;;;;6.75;6.75;;;;;16.54;66.71;99287.00;5009963;28;45553;-58
2022/05/28 04:33:08;;;;;;;;;6.00;6.00;;;;;16.53;67.11;99295.94;5005007;28;45341;-57
2022/05/28 04:35:33;;;;;;;;;11.25;10.75;;;;;16.51;67.84;99289.84;5007517;28;46170;-58
2022/05/28 04:37:59;;;;;;;;;7.25;5.00;;;;;16.52;67.19;99274.72;5014992;28;45453;-57
2022/05/28 04:40:25;;;;;;;;;10.50;10.25;;;;;16.52;67.64;99275.59;5016105;28;45383;-58
2022/05/28 04:42:50;;;;;;;;;9.25;8.25;;;;;16.52;67.51;99288.91;5030788;28;45492;-58
2022/05/28 04:45:17;;;;;;;;;9.75;7.00;;;;;16.49;67.57;99291.75;5035462;28;47272;-58
2022/05/28 04:47:43;;;;;;;;;6.50;5.75;;;;;16.47;67.25;99284.78;5035447;28;45468;-57
2022/05/28 04:50:08;;;;;;;;;6.00;5.00;;;;;16.45;67.32;99284.88;5035750;28;45430;-58
2022/05/28 04:52:34;;;;;;;;;5.75;5.75;;;;;16.39;67.47;99307.44;5030776;28;45374;-58
2022/05/28 04:54:59;;;;;;;;;5.00;5.00;;;;;16.33;67.97;99309.59;5024027;28;45434;-59
2022/05/28 04:57:25;;;;;;;;;5.00;5.00;;;;;16.26;68.04;99298.44;4981058;28;45775;-57
2022/05/28 04:59:50;;;;;;;;;10.75;9.50;;;;;16.22;68.79;99304.06;5015609;28;45842;-57
2022/05/28 05:02:16;;;;;;;;;9.50;8.00;;;;;16.18;68.97;99289.25;5015357;28;45440;-57
2022/05/28 05:04:42;;;;;;;;;8.75;8.75;;;;;16.13;69.01;99296.63;5026600;28;46545;-57
2022/05/28 05:07:07;;;;;;;;;11.25;8.00;;;;;16.10;68.61;99292.34;5016864;28;45382;-57
2022/05/28 05:09:33;;;;;;;;;6.00;5.00;;;;;16.12;68.80;99287.78;5030636;28;45435;-57
2022/05/28 05:11:58;;;;;;;;;5.50;5.00;;;;;16.18;68.83;99302.53;5017570;28;45472;-58
2022/05/28 05:14:24;;;;;;;;;9.00;8.75;;;;;16.17;69.21;99293.69;5015105;28;45865;-57
2022/05/28 05:16:51;;;;;;;;;9.75;9.50;;;;;16.18;69.39;99294.56;5029017;28;45315;-58
2022/05/28 05:19:17;;;;;;;;;6.25;5.75;;;;;16.14;68.57;99290.38;5014291;28;45320;-57
2022/05/28 05:21:44;;;;;;;;;7.50;6.50;;;;;16.14;68.85;99295.69;5032364;28;45525;-58
2022/05/28 05:24:10;;;;;;;;;7.75;6.00;;;;;16.12;69.59;99301.09;5034660;28;45477;-58
2022/05/28 05:26:36;;;;;;;;;6.75;6.75;;;;;16.09;69.56;99300.44;5029972;28;45388;-58
2022/05/28 05:29:02;;;;;;;;;7.50;7.00;;;;;16.02;69.72;99283.97;5015219;28;45308;-58
2022/05/28 05:31:27;;;;;;;;;6.25;5.75;;;;;15.96;70.08;99293.16;5017039;28;45446;-58
2022/05/28 05:33:53;;;;;;;;;9.75;9.00;;;;;15.94;70.06;99294.22;5024760;28;46596;-58
2022/05/28 05:36:18;;;;;;;;;8.25;8.25;;;;;15.91;70.88;99316.53;5020411;28;45376;-58
2022/05/28 05:38:44;;;;;;;;;6.00;6.00;;;;;15.91;70.00;99299.72;5025922;28;45401;-58
2022/05/28 05:41:11;;;;;;;;;5.75;5.75;;;;;15.91;70.75;99310.38;5023905;28;45453;-58
2022/05/28 05:43:39;;;;;;;;;6.50;6.50;;;;;15.89;70.46;99283.88;5024377;28;45940;-58
2022/05/28 05:46:05;;;;;;;;;8.60;8.60;;;;;15.89;70.82;99288.31;5014506;28;45541;-58
2022/05/28 05:48:31;;;;;;;;;8.75;7.00;;;;;15.89;71.01;99299.81;5014046;28;45445;-61
2022/05/28 05:51:03;;;;;;;;;9.75;7.00;;;;;15.91;71.05;99292.59;5028433;28;45373;-60
2022/05/28 05:53:28;;;;;;;;;11.50;9.75;;;;;15.91;71.08;99289.09;5012499;28;46317;-60
2022/05/28 05:55:53;;;;;;;;;9.75;9.75;;;;;15.89;70.65;99297.16;5020013;28;45462;-60
2022/05/28 05:58:19;;;;;;;;;9.25;8.75;;;;;15.88;70.85;99292.78;5013206;28;45477;-60
2022/05/28 06:00:44;;;;;;;;;12.75;10.75;;;;;15.89;70.89;99291.84;5018514;28;45509;-60
2022/05/28 06:03:16;;;;;;;;;9.25;9.25;;;;;15.90;71.04;99292.69;4993640;28;46423;-60
2022/05/28 06:05:41;;;;;;;;;13.00;12.50;;;;;15.88;70.87;99287.47;5019300;28;45450;-60
2022/05/28 06:08:07;;;;;;;;;11.25;9.50;;;;;15.93;70.50;99273.88;5024465;28;45461;-60
2022/05/28 06:10:32;;;;;;;;;11.25;10.00;;;;;16.00;70.67;99276.09;5027694;28;45429;-60
2022/05/28 06:12:57;;;;;;;;;9.75;9.75;;;;;16.09;70.20;99268.53;5013285;28;46344;-60
2022/05/28 06:15:23;;;;;;;;;8.25;7.75;;;;;16.14;70.07;99271.75;5020037;28;45482;-61
2022/05/28 06:17:48;;;;;;;;;13.00;13.00;;;;;16.18;70.25;99271.47;5021645;28;45470;-60
2022/05/28 06:20:14;;;;;;;;;10.75;10.75;;;;;16.23;69.89;99272.06;5014225;28;45390;-60
2022/05/28 06:22:39;;;;;;;;;13.75;9.25;;;;;16.28;69.76;99259.31;5014306;28;45457;-60
2022/05/28 06:25:05;;;;;;;;;8.25;8.25;;;;;16.34;69.50;99266.06;5019958;28;45497;-60
2022/05/28 06:27:34;;;;;;;;;11.00;8.75;;;;;16.39;69.46;99254.22;5028432;28;45494;-60
2022/05/28 06:29:59;;;;;;;;;10.25;8.25;;;;;16.42;69.57;99258.50;5030941;28;45488;-60
2022/05/28 06:32:25;;;;;;;;;8.75;8.75;;;;;16.41;69.87;99272.75;5017062;28;45749;-60
2022/05/28 06:34:50;;;;;;;;;11.50;11.50;;;;;16.42;69.42;99261.16;5020975;28;45311;-60
2022/05/28 06:37:16;;;;;;;;;14.50;13.75;;;;;16.44;69.92;99266.34;5020411;28;45566;-61
2022/05/28 06:39:41;;;;;;;;;14.75;13.00;;;;;16.45;69.37;99276.91;5013460;28;45576;-61
2022/05/28 06:42:07;;;;;;;;;16.50;13.25;;;;;16.42;69.72;99262.97;5021479;28;46271;-60
2022/05/28 06:44:33;;;;;;;;;13.25;12.75;;;;;16.39;69.74;99270.19;5028129;28;45923;-60
2022/05/28 06:46:58;;;;;;;;;13.75;12.00;;;;;16.37;70.17;99269.41;5013347;28;45505;-60
2022/05/28 06:49:24;;;;;;;;;10.50;9.25;;;;;16.31;70.05;99258.28;5013432;28;45522;-60
2022/05/28 06:51:51;;;;;;;;;14.00;14.00;;;;;16.32;70.59;99266.16;5013095;28;45473;-60
2022/05/28 06:54:18;;;;;;;;;15.00;14.25;;;;;16.30;70.17;99267.19;5029443;28;45451;-60
2022/05/28 06:56:43;;;;;;;;;10.25;8.25;;;;;16.26;70.84;99247.91;5033131;28;45526;-60
2022/05/28 06:59:09;;;;;;;;;13.50;12.25;;;;;16.22;70.40;99241.09;5033530;28;45613;-60
2022/05/28 07:01:34;;;;;;;;;12.00;11.00;;;;;16.20;71.07;99266.06;5028486;28;45516;-60
2022/05/28 07:04:00;;;;;;;;;13.50;12.25;;;;;16.17;70.29;99240.50;5027303;28;45370;-60
2022/05/28 07:06:27;;;;;;;;;12.50;10.00;;;;;16.17;70.94;99234.31;5035715;28;45441;-60
2022/05/28 07:08:52;;;;;;;;;12.75;12.50;;;;;16.17;71.33;99242.31;5025616;28;45452;-60
2022/05/28 07:11:18;;;;;;;;;13.75;13.75;;;;;16.21;71.08;99233.19;5036046;28;46130;-60
2022/05/28 07:13:43;;;;;;;;;14.25;13.50;;;;;16.24;70.95;99247.16;5017489;28;45529;-60
2022/05/28 07:16:09;;;;;;;;;13.25;11.00;;;;;16.29;70.35;99238.88;5028661;28;45917;-60
2022/05/28 07:18:35;;;;;;;;;13.75;10.25;;;;;16.31;71.09;99266.25;4999401;28;45390;-60
2022/05/28 07:21:02;;;;;;;;;21.75;19.75;;;;;16.33;70.39;99245.75;5028723;28;45569;-60
2022/05/28 07:23:29;;;;;;;;;15.50;13.00;;;;;16.36;70.16;99227.78;5017050;28;45227;-61
2022/05/28 07:26:01;;;;;;;;;15.00;14.00;;;;;16.42;70.21;99223.91;5028884;28;45449;-61
2022/05/28 07:28:28;;;;;;;;;16.00;11.75;;;;;16.45;70.00;99228.16;5036049;28;45224;-61
2022/05/28 07:31:02;;;;;;;;;15.25;14.00;;;;;16.54;70.00;99232.91;5036667;28;46253;-61
2022/05/28 07:33:30;;;;;;;;;14.50;14.50;;;;;16.59;69.43;99214.84;5032883;28;45449;-61
2022/05/28 07:35:57;;;;;;;;;17.25;17.00;;;;;16.66;69.57;99232.16;5035353;28;45490;-62
2022/05/28 07:38:24;;;;;;;;;14.25;12.50;;;;;16.73;69.05;99223.72;4997940;28;45376;-61
2022/05/28 07:40:50;;;;;;;;;18.75;17.75;;;;;16.80;68.61;99210.84;5022516;28;45503;-61
2022/05/28 07:43:17;;;;;;;;;12.50;12.50;;;;;16.89;68.69;99214.72;5014383;28;45421;-61
2022/05/28 07:45:44;;;;;;;;;18.25;15.75;;;;;16.99;68.46;99223.84;5030752;28;45443;-60
2022/05/28 07:48:11;;;;;;;;;9.25;9.25;;;;;17.07;68.25;99226.88;5035091;28;45529;-61
2022/05/28 07:50:36;;;;;;;;;13.00;13.00;;;;;17.14;67.88;99220.16;5020456;28;45486;-61
2022/05/28 07:53:03;;;;;;;;;16.25;13.50;;;;;17.21;67.38;99204.66;5015277;28;45453;-61
2022/05/28 07:55:29;;;;;;;;;14.75;11.25;;;;;17.27;67.13;99212.22;5018950;28;45526;-61
2022/05/28 07:57:55;;;;;;;;;14.50;9.25;;;;;17.34;67.10;99203.72;5035033;28;45388;-61
2022/05/28 08:00:21;;;;;;;;;14.00;12.00;;;;;17.41;66.48;99202.38;5019729;28;45565;-61
2022/05/28 08:02:46;;;;;;;;;8.75;7.25;;;;;17.52;65.96;99203.47;5020215;28;45518;-61
2022/05/28 08:05:12;;;;;;;;;13.75;8.50;;;;;17.55;65.80;99228.09;5032645;28;45477;-62
2022/05/28 08:07:38;;;;;;;;;16.25;16.25;;;;;17.64;65.34;99198.19;5034964;28;45524;-61
2022/05/28 08:10:04;;;;;;;;;14.50;13.75;;;;;17.76;64.59;99196.50;5017102;28;45746;-60
2022/05/28 08:12:29;;;;;;;;;13.00;12.50;;;;;17.85;65.34;99211.03;5035261;28;45458;-61
2022/05/28 08:14:55;;;;;;;;;15.75;14.25;;;;;17.88;64.51;99193.00;5033446;28;45329;-62
2022/05/28 08:17:21;;;;;;;;;14.25;13.25;;;;;17.94;64.06;99189.88;5016472;28;45517;-63
2022/05/28 08:19:46;;;;;;;;;11.25;10.00;;;;;18.03;63.69;99199.94;5035181;28;46673;-61
2022/05/28 08:24:56;;;;;;;;;10.25;9.00;;;;;18.18;63.34;99202.50;5032775;28;45494;-62
2022/05/28 08:27:21;;;;;;;;;10.00;10.00;;;;;18.20;62.94;99198.75;5033909;28;45498;-62
2022/05/28 08:29:46;;;;;;;;;11.50;10.00;;;;;18.23;63.21;99189.69;5017268;28;45794;-62
2022/05/28 08:32:16;;;;;;;;;13.75;12.75;;;;;18.28;62.63;99187.53;5015277;28;45473;-62
2022/05/28 08:34:43;;;;;;;;;11.75;10.25;;;;;18.30;62.59;99193.63;5015504;28;45575;-63
2022/05/28 08:37:08;;;;;;;;;11.75;11.75;;;;;18.31;62.51;99188.19;4996942;28;45457;-63
2022/05/28 08:39:34;;;;;;;;;8.75;8.50;;;;;18.35;62.00;99176.34;5028502;28;46200;-63
2022/05/28 08:41:59;;;;;;;;;10.00;8.50;;;;;18.40;61.66;99192.03;5030070;28;45415;-63
2022/05/28 08:44:31;;;;;;;;;13.75;13.75;;;;;18.45;61.35;99181.84;5034342;28;45637;-63
2022/05/28 08:47:16;;;;;;;;;12.75;12.25;;;;;18.49;62.07;99172.66;5034687;28;45474;-63
2022/05/28 08:49:43;;;;;;;;;9.25;9.25;;;;;18.56;61.38;99183.78;5034713;28;45555;-63
2022/05/28 08:52:19;;;;;;;;;12.80;10.20;;;;;18.61;62.69;99163.81;5034420;28;45405;-63
2022/05/28 08:54:58;;;;;;;;;12.75;12.75;;;;;18.59;61.04;99154.22;5035050;28;45409;-63
2022/05/28 08:57:29;;;;;;;;;10.00;9.00;;;;;18.54;61.38;99149.16;5034923;28;45805;-63
2022/05/28 09:00:00;;;;;;;;;9.75;9.00;;;;;18.57;61.79;99162.31;5035217;28;45591;-63
2022/05/28 09:02:40;;;;;;;;;11.60;11.60;;;;;18.64;61.16;99178.75;5028853;28;45544;-63
2022/05/28 09:05:35;;;;;;;;;9.75;9.00;;;;;18.65;60.55;99143.06;4997375;28;45468;-63
2022/05/28 09:08:04;;;;;;;;;5.00;5.00;;;;;18.67;60.69;99131.31;4995450;28;45628;-63
2022/05/28 09:10:49;;;;;;;;;10.00;8.50;;;;;18.75;60.54;99130.78;5032668;28;46177;-63
2022/05/28 09:13:41;;;;;;;;;5.20;4.60;;;;;18.85;59.23;99139.81;5020267;28;45359;-63
2022/05/28 09:16:17;;;;;;;;;8.50;8.50;;;;;18.96;59.24;99136.31;5026416;28;45509;-63
2022/05/28 09:18:43;;;;;;;;;6.50;6.50;;;;;19.02;58.78;99119.84;5014536;28;45566;-63
2022/05/28 09:21:13;;;;;;;;;8.50;8.50;;;;;19.11;58.34;99127.16;5014620;28;47343;-63
2022/05/28 09:23:50;;;;;;;;;8.20;7.00;;;;;19.23;57.83;99118.25;5021666;28;45560;-63
2022/05/28 09:26:29;;;;;;;;;6.50;6.50;;;;;19.31;57.90;99113.16;5032942;28;45466;-62
2022/05/28 09:29:27;;;;;;;;;7.25;5.75;;;;;19.46;57.47;99101.28;5013167;28;45457;-62
2022/05/28 09:32:13;;;;;;;;;7.75;7.75;;;;;19.62;56.66;99092.97;5022645;28;45420;-61
2022/05/28 09:34:39;;;;;;;;;8.20;8.20;;;;;19.78;56.36;99095.28;5034269;28;45377;-62
2022/05/28 09:37:13;;;;;;;;;8.50;6.75;;;;;19.88;56.08;99114.19;5034134;28;45526;-63
2022/05/28 09:39:55;;;;;;;;;8.50;8.00;;;;;19.98;54.97;99117.81;5034483;28;45485;-63
2022/05/28 09:42:29;;;;;;;;;7.00;7.00;;;;;20.02;54.68;99084.50;5019646;28;45788;-63
2022/05/28 09:44:54;;;;;;;;;10.40;9.00;;;;;20.04;53.76;99093.25;5013703;28;45428;-63
2022/05/28 09:47:19;;;;;;;;;5.00;5.00;;;;;20.08;53.95;99114.31;5026850;28;45503;-63
2022/05/28 09:49:57;;;;;;;;;6.00;6.00;;;;;20.11;54.09;99076.56;5014347;28;45430;-63
2022/05/28 09:52:31;;;;;;;;;7.20;6.40;;;;;20.19;53.84;99060.75;5016746;28;45569;-63
2022/05/28 09:55:18;;;;;;;;;4.60;4.60;;;;;20.28;52.96;99069.88;5022472;28;45427;-65
2022/05/28 09:58:02;;;;;;;;;3.00;3.00;;;;;20.35;53.01;99049.66;5013785;28;45363;-62
2022/05/28 10:00:28;;;;;;;;;6.25;6.00;;;;;20.39;53.38;99044.94;5013568;28;45589;-63
2022/05/28 10:05:57;;;;;;;;;5.20;5.20;;;;;20.57;52.68;99034.56;5020791;28;45481;-63
2022/05/28 10:08:33;;;;;;;;;6.00;6.00;;;;;20.68;52.28;99021.97;5023383;28;45661;-63
2022/05/28 10:11:05;;;;;;;;;6.50;6.00;;;;;20.77;51.47;99049.84;5023544;28;45498;-63
2022/05/28 10:13:42;;;;;;;;;6.00;6.00;;;;;20.81;52.07;99048.59;5017394;28;46532;-63
2022/05/28 10:16:07;;;;;;;;;3.40;3.40;;;;;20.90;51.21;99088.03;5032766;28;45393;-63
2022/05/28 10:18:41;;;;;;;;;4.75;4.25;;;;;20.91;50.97;99044.19;5015384;28;45422;-63
2022/05/28 10:21:37;;;;;;;;;6.75;5.00;;;;;20.88;51.34;99021.16;5013410;28;45404;-63
2022/05/28 10:24:10;;;;;;;;;4.60;4.00;;;;;20.85;51.59;99024.09;5012788;28;45491;-63
2022/05/28 10:26:48;;;;;;;;;6.40;4.80;;;;;20.84;51.39;99013.50;5017579;28;45593;-63
2022/05/28 10:29:18;;;;;;;;;4.20;4.00;;;;;20.84;50.58;99013.50;5003238;28;45427;-63
2022/05/28 10:31:47;;;;;;;;;3.00;3.00;;;;;20.86;50.35;99014.22;5013746;28;45432;-63
2022/05/28 10:34:38;;;;;;;;;6.40;5.40;;;;;20.92;50.37;99004.81;5013795;28;45516;-63
2022/05/28 10:37:18;;;;;;;;;4.80;4.80;;;;;20.89;49.88;99014.81;5033000;28;45438;-63
2022/05/28 10:39:44;;;;;;;;;7.00;7.00;;;;;20.92;50.40;98996.78;5000961;28;45344;-62
2022/05/28 10:42:12;;;;;;;;;6.00;5.25;;;;;20.93;50.57;98993.13;5021957;28;45420;-63
2022/05/28 10:44:39;;;;;;;;;6.00;4.40;;;;;20.99;50.89;98997.94;5016911;28;46330;-63
2022/05/28 10:47:41;;;;;;;;;6.00;5.00;;;;;21.05;50.53;98992.06;5016262;28;45470;-63
2022/05/28 10:50:27;;;;;;;;;3.20;3.20;;;;;21.12;49.69;98996.78;5013154;28;45576;-63
2022/05/28 10:52:55;;;;;;;;;6.00;6.00;;;;;21.21;49.40;98992.50;5016799;28;45596;-63
2022/05/28 10:55:29;;;;;;;;;5.00;5.00;;;;;21.31;50.39;98973.78;4999094;28;46599;-63
2022/05/28 10:58:16;;;;;;;;;6.00;6.00;;;;;21.46;48.78;98985.84;5025781;28;45426;-63
2022/05/28 11:01:02;;;;;;;;;5.40;5.00;;;;;21.53;48.84;98966.41;5036365;28;45469;-63
2022/05/28 11:03:55;;;;;;;;;6.25;4.00;;;;;21.63;48.70;98963.75;5036469;28;45441;-64
2022/05/28 11:06:41;;;;;;;;;5.20;5.20;;;;;21.67;47.70;98970.56;5036548;28;46371;-63
2022/05/28 11:09:39;;;;;;;;;5.00;5.00;;;;;21.73;47.58;98971.88;5025843;28;45475;-63
2022/05/28 11:12:13;;;;;;;;;4.80;4.80;;;;;21.81;46.74;98956.78;5007393;28;45427;-63
2022/05/28 11:14:57;;;;;;;;;5.00;4.00;;;;;21.82;46.31;98947.75;5017002;28;45343;-63
2022/05/28 11:17:41;;;;;;;;;7.50;7.00;;;;;21.88;46.51;98935.63;5009463;28;45611;-63
2022/05/28 11:20:55;;;;;;;;;4.00;4.00;;;;;21.91;45.59;98949.63;5016828;28;45380;-63
2022/05/28 11:23:51;;;;;;;;;3.60;3.60;;;;;21.93;45.91;98938.75;5007533;28;45426;-63
2022/05/28 11:26:22;;;;;;;;;4.20;3.60;;;;;21.99;46.25;98931.97;5022038;28;45402;-63
2022/05/28 11:29:26;;;;;;;;;3.00;3.00;;;;;22.03;45.94;98923.53;5026327;28;46301;-63
2022/05/28 11:32:00;;;;;;;;;4.20;4.20;;;;;22.11;46.02;98929.06;5036288;28;45508;-63
2022/05/28 11:34:40;;;;;;;;;5.00;3.00;;;;;22.20;45.91;98925.53;5036571;28;45310;-63
2022/05/28 11:37:12;;;;;;;;;3.75;3.75;;;;;22.26;45.04;98908.03;5024846;28;45466;-63
2022/05/28 11:40:12;;;;;;;;;1.60;1.60;;;;;22.31;43.92;98908.44;5021075;28;46353;-63
2022/05/28 11:43:12;;;;;;;;;5.00;5.00;;;;;22.42;44.34;98923.59;5016029;28;45377;-63
2022/05/28 11:45:50;;;;;;;;;5.00;3.00;;;;;22.56;42.64;98915.94;4999457;28;45407;-63
2022/05/28 11:51:37;;;;;;;;;3.00;1.60;;;;;22.72;43.21;98893.00;5029094;28;45358;-63
2022/05/28 11:54:22;;;;;;;;;5.80;4.80;;;;;22.79;42.49;98878.06;5036021;28;45555;-64